createdAt,value
2019-02-06T00:00:13.852Z,1022.99
2019-02-06T00:01:13.958Z,1023.00
2019-02-06T00:02:14.181Z,1022.94
2019-02-06T00:03:14.376Z,1023.03
2019-02-06T00:04:15.563Z,1023.04
2019-02-06T00:05:15.833Z,1023.03
2019-02-06T00:06:14.991Z,1023.02
2019-02-06T00:07:15.217Z,1023.06
2019-02-06T00:08:15.550Z,1023.04
2019-02-06T00:09:15.639Z,1023.01
2019-02-06T00:10:15.821Z,1023.02
2019-02-06T00:11:16.075Z,1023.09
2019-02-06T00:12:16.286Z,1023.10
2019-02-06T00:13:22.580Z,1023.10
2019-02-06T00:14:16.723Z,1023.08
2019-02-06T00:15:16.917Z,1023.11
2019-02-06T00:16:17.229Z,1023.10
2019-02-06T00:17:17.332Z,1023.08
2019-02-06T00:18:17.502Z,1023.07
2019-02-06T00:19:17.754Z,1023.06
2019-02-06T00:20:17.923Z,1023.10
2019-02-06T00:21:20.373Z,1023.14
2019-02-06T00:22:18.341Z,1023.12
2019-02-06T00:23:18.557Z,1023.15
2019-02-06T00:24:18.797Z,1023.24
2019-02-06T00:25:18.955Z,1023.09
2019-02-06T00:26:19.164Z,1023.12
2019-02-06T00:27:19.362Z,1023.09
2019-02-06T00:28:19.563Z,1023.04
2019-02-06T00:29:19.785Z,1023.10
2019-02-06T00:30:19.978Z,1023.11
2019-02-06T00:31:20.196Z,1023.08
2019-02-06T00:32:20.445Z,1023.09
2019-02-06T00:33:20.584Z,1023.09
2019-02-06T00:34:20.827Z,1023.04
2019-02-06T00:35:25.794Z,1023.05
2019-02-06T00:36:22.242Z,1023.10
2019-02-06T00:37:21.452Z,1023.08
2019-02-06T00:38:21.639Z,1023.02
2019-02-06T00:39:21.828Z,1023.03
2019-02-06T00:40:22.306Z,1023.01
2019-02-06T00:41:22.388Z,1023.05
2019-02-06T00:42:22.490Z,1023.00
2019-02-06T00:43:22.683Z,1023.06
2019-02-06T00:44:22.889Z,1023.08
2019-02-06T00:45:23.113Z,1023.10
2019-02-06T00:46:23.300Z,1023.09
2019-02-06T00:47:23.530Z,1023.08
2019-02-06T00:48:23.715Z,1023.10
2019-02-06T00:49:24.005Z,1023.08
2019-02-06T00:50:24.130Z,1023.13
2019-02-06T00:51:24.332Z,1023.08
2019-02-06T00:52:24.561Z,1023.07
2019-02-06T00:53:24.742Z,1023.13
2019-02-06T00:54:24.955Z,1023.11
2019-02-06T00:55:25.196Z,1023.12
2019-02-06T00:56:25.381Z,1023.08
2019-02-06T00:57:25.676Z,1023.11
2019-02-06T00:58:25.772Z,1023.07
2019-02-06T00:59:25.991Z,1023.10
2019-02-06T01:00:26.245Z,1023.10
2019-02-06T01:01:26.426Z,1023.03
2019-02-06T01:02:26.659Z,1023.04
2019-02-06T01:03:26.850Z,1023.06
2019-02-06T01:04:27.059Z,1023.07
2019-02-06T01:05:37.443Z,1023.05
2019-02-06T01:06:28.433Z,1023.07
2019-02-06T01:07:27.684Z,1023.09
2019-02-06T01:08:27.866Z,1023.10
2019-02-06T01:09:28.070Z,1023.07
2019-02-06T01:10:28.336Z,1023.16
2019-02-06T01:11:28.494Z,1023.12
2019-02-06T01:12:28.704Z,1023.16
2019-02-06T01:13:28.964Z,1023.18
2019-02-06T01:14:29.309Z,1023.17
2019-02-06T01:15:29.659Z,1023.14
2019-02-06T01:16:29.547Z,1023.15
2019-02-06T01:17:29.750Z,1023.18
2019-02-06T01:18:29.957Z,1023.19
2019-02-06T01:19:30.176Z,1023.14
2019-02-06T01:20:30.454Z,1023.17
2019-02-06T01:21:30.598Z,1023.13
2019-02-06T01:22:30.887Z,1023.15
2019-02-06T01:23:31.003Z,1023.11
2019-02-06T01:24:31.211Z,1023.15
2019-02-06T01:25:31.461Z,1023.11
2019-02-06T01:26:31.618Z,1023.08
2019-02-06T01:27:31.837Z,1023.04
2019-02-06T01:28:32.011Z,1023.09
2019-02-06T01:29:32.238Z,1023.12
2019-02-06T01:30:32.606Z,1023.15
2019-02-06T01:31:32.663Z,1023.12
2019-02-06T01:32:32.910Z,1023.11
2019-02-06T01:33:33.069Z,1023.13
2019-02-06T01:34:33.293Z,1023.11
2019-02-06T01:35:33.539Z,1023.08
2019-02-06T01:36:33.714Z,1023.12
2019-02-06T01:37:33.928Z,1023.10
2019-02-06T01:38:34.167Z,1023.11
2019-02-06T01:39:34.310Z,1023.17
2019-02-06T01:40:34.589Z,1023.10
2019-02-06T01:41:34.736Z,1023.11
2019-02-06T01:42:35.205Z,1023.14
2019-02-06T01:43:35.157Z,1023.13
2019-02-06T01:44:35.354Z,1023.15
2019-02-06T01:45:35.592Z,1023.16
2019-02-06T01:46:35.805Z,1023.16
2019-02-06T01:47:35.963Z,1023.16
2019-02-06T01:48:36.168Z,1023.17
2019-02-06T01:49:36.372Z,1023.20
2019-02-06T01:50:36.640Z,1023.16
2019-02-06T01:51:36.850Z,1023.20
2019-02-06T01:52:37.012Z,1023.17
2019-02-06T01:53:37.203Z,1023.19
2019-02-06T01:54:37.437Z,1023.12
2019-02-06T01:55:37.767Z,1023.08
2019-02-06T01:56:37.805Z,1023.16
2019-02-06T01:57:38.032Z,1023.10
2019-02-06T01:58:38.245Z,1023.10
2019-02-06T01:59:38.457Z,1023.13
2019-02-06T02:00:38.746Z,1023.14
2019-02-06T02:01:38.873Z,1023.16
2019-02-06T02:02:39.064Z,1023.15
2019-02-06T02:03:39.382Z,1023.14
2019-02-06T02:04:39.502Z,1023.19
2019-02-06T02:05:39.756Z,1023.15
2019-02-06T02:06:39.903Z,1023.16
2019-02-06T02:07:40.116Z,1023.27
2019-02-06T02:08:40.349Z,1023.20
2019-02-06T02:09:40.543Z,1023.20
2019-02-06T02:10:40.794Z,1023.16
2019-02-06T02:11:41.029Z,1023.15
2019-02-06T02:12:41.134Z,1023.16
2019-02-06T02:13:41.387Z,1023.10
2019-02-06T02:14:41.577Z,1023.09
2019-02-06T02:15:41.832Z,1023.13
2019-02-06T02:16:41.978Z,1023.12
2019-02-06T02:17:42.185Z,1023.09
2019-02-06T02:18:42.399Z,1023.09
2019-02-06T02:19:42.649Z,1023.02
2019-02-06T02:20:42.854Z,1023.03
2019-02-06T02:21:43.028Z,1022.98
2019-02-06T02:22:43.227Z,1023.03
2019-02-06T02:23:43.444Z,1023.04
2019-02-06T02:24:43.612Z,1023.03
2019-02-06T02:25:43.883Z,1023.03
2019-02-06T02:26:44.039Z,1023.05
2019-02-06T02:27:44.283Z,1023.05
2019-02-06T02:28:44.629Z,1023.04
2019-02-06T02:29:44.652Z,1023.05
2019-02-06T02:30:44.925Z,1023.07
2019-02-06T02:31:45.098Z,1023.14
2019-02-06T02:32:45.292Z,1023.16
2019-02-06T02:33:45.520Z,1023.19
2019-02-06T02:34:45.708Z,1023.19
2019-02-06T02:35:45.980Z,1023.22
2019-02-06T02:36:46.242Z,1023.23
2019-02-06T02:37:46.342Z,1023.21
2019-02-06T02:38:46.568Z,1023.19
2019-02-06T02:39:46.756Z,1023.18
2019-02-06T02:40:46.989Z,1023.15
2019-02-06T02:41:47.170Z,1023.15
2019-02-06T02:42:47.392Z,1023.15
2019-02-06T02:43:47.610Z,1023.14
2019-02-06T02:44:47.914Z,1023.19
2019-02-06T02:45:48.052Z,1023.16
2019-02-06T02:46:48.223Z,1023.19
2019-02-06T02:47:48.431Z,1023.16
2019-02-06T02:48:48.653Z,1023.16
2019-02-06T02:49:48.843Z,1023.13
2019-02-06T02:50:49.085Z,1023.11
2019-02-06T02:51:49.238Z,1023.12
2019-02-06T02:52:49.526Z,1023.14
2019-02-06T02:53:49.689Z,1023.13
2019-02-06T02:54:49.883Z,1023.17
2019-02-06T02:55:50.144Z,1023.19
2019-02-06T02:56:50.296Z,1023.11
2019-02-06T02:57:50.478Z,1023.11
2019-02-06T02:58:50.723Z,1023.09
2019-02-06T02:59:50.915Z,1023.11
2019-02-06T03:00:51.191Z,1023.08
2019-02-06T03:01:51.303Z,1023.07
2019-02-06T03:02:51.503Z,1023.06
2019-02-06T03:03:51.734Z,1023.07
2019-02-06T03:04:51.935Z,1023.04
2019-02-06T03:05:52.394Z,1023.09
2019-02-06T03:06:52.363Z,1023.12
2019-02-06T03:07:52.585Z,1023.08
2019-02-06T03:08:52.814Z,1023.05
2019-02-06T03:09:53.038Z,1023.02
2019-02-06T03:10:53.231Z,1023.05
2019-02-06T03:11:53.445Z,1023.03
2019-02-06T03:12:53.636Z,1023.08
2019-02-06T03:13:53.853Z,1023.03
2019-02-06T03:14:54.065Z,1023.07
2019-02-06T03:15:54.256Z,1023.10
2019-02-06T03:16:54.549Z,1023.12
2019-02-06T03:17:54.750Z,1023.10
2019-02-06T03:18:54.872Z,1023.10
2019-02-06T03:19:55.060Z,1023.07
2019-02-06T03:20:55.280Z,1023.05
2019-02-06T03:21:55.760Z,1023.00
2019-02-06T03:22:55.691Z,1023.02
2019-02-06T03:23:55.944Z,1022.97
2019-02-06T03:24:56.117Z,1022.99
2019-02-06T03:25:56.423Z,1022.91
2019-02-06T03:26:56.541Z,1022.99
2019-02-06T03:27:56.732Z,1022.98
2019-02-06T03:28:56.945Z,1022.95
2019-02-06T03:29:57.145Z,1022.91
2019-02-06T03:30:57.337Z,1022.92
2019-02-06T03:31:57.586Z,1022.91
2019-02-06T03:32:57.800Z,1022.91
2019-02-06T03:33:58.042Z,1022.97
2019-02-06T03:34:58.161Z,1022.93
2019-02-06T03:35:58.372Z,1022.93
2019-02-06T03:36:58.603Z,1022.95
2019-02-06T03:37:58.783Z,1022.97
2019-02-06T03:38:59.016Z,1022.94
2019-02-06T03:39:59.191Z,1022.93
2019-02-06T03:40:59.403Z,1023.01
2019-02-06T03:41:59.676Z,1022.94
2019-02-06T03:42:59.796Z,1022.96
2019-02-06T03:44:00.044Z,1022.96
2019-02-06T03:45:00.289Z,1022.93
2019-02-06T03:46:00.442Z,1022.92
2019-02-06T03:47:00.683Z,1022.90
2019-02-06T03:48:00.866Z,1022.91
2019-02-06T03:49:01.062Z,1022.94
2019-02-06T03:50:01.279Z,1022.94
2019-02-06T03:51:01.587Z,1022.89
2019-02-06T03:52:01.713Z,1022.90
2019-02-06T03:53:01.875Z,1022.89
2019-02-06T03:54:02.111Z,1022.79
2019-02-06T03:55:02.325Z,1022.82
2019-02-06T03:56:02.528Z,1022.81
2019-02-06T03:57:02.764Z,1022.81
2019-02-06T03:58:02.944Z,1022.82
2019-02-06T03:59:03.251Z,1022.83
2019-02-06T04:00:03.346Z,1022.84
2019-02-06T04:01:03.553Z,1022.85
2019-02-06T04:02:03.797Z,1022.87
2019-02-06T04:03:03.965Z,1022.85
2019-02-06T04:04:04.162Z,1022.89
2019-02-06T04:05:04.368Z,1022.88
2019-02-06T04:06:04.599Z,1022.90
2019-02-06T04:07:04.920Z,1022.90
2019-02-06T04:08:04.991Z,1022.93
2019-02-06T04:09:05.200Z,1022.95
2019-02-06T04:10:05.458Z,1022.91
2019-02-06T04:11:05.632Z,1022.88
2019-02-06T04:12:05.883Z,1022.91
2019-02-06T04:13:06.045Z,1022.91
2019-02-06T04:14:06.253Z,1022.88
2019-02-06T04:15:06.518Z,1022.93
2019-02-06T04:16:06.653Z,1022.88
2019-02-06T04:17:06.900Z,1022.85
2019-02-06T04:18:07.079Z,1022.84
2019-02-06T04:19:07.288Z,1022.80
2019-02-06T04:20:07.511Z,1022.82
2019-02-06T04:21:07.702Z,1022.80
2019-02-06T04:22:07.956Z,1022.81
2019-02-06T04:23:08.156Z,1022.79
2019-02-06T04:24:08.419Z,1022.74
2019-02-06T04:25:08.590Z,1022.74
2019-02-06T04:26:08.781Z,1022.76
2019-02-06T04:27:09.038Z,1022.75
2019-02-06T04:28:09.179Z,1022.75
2019-02-06T04:29:09.401Z,1022.81
2019-02-06T04:30:09.631Z,1022.72
2019-02-06T04:31:09.832Z,1022.75
2019-02-06T04:32:10.171Z,1022.76
2019-02-06T04:33:10.231Z,1022.85
2019-02-06T04:34:10.437Z,1022.73
2019-02-06T04:35:10.668Z,1022.84
2019-02-06T04:36:10.850Z,1022.79
2019-02-06T04:37:11.115Z,1022.80
2019-02-06T04:38:11.238Z,1022.81
2019-02-06T04:39:11.463Z,1022.78
2019-02-06T04:40:11.788Z,1022.82
2019-02-06T04:41:11.898Z,1022.76
2019-02-06T04:42:12.165Z,1022.81
2019-02-06T04:43:12.287Z,1022.78
2019-02-06T04:44:12.501Z,1022.80
2019-02-06T04:45:12.757Z,1022.83
2019-02-06T04:46:12.937Z,1022.75
2019-02-06T04:47:13.183Z,1022.80
2019-02-06T04:48:13.398Z,1022.71
2019-02-06T04:49:13.536Z,1022.78
2019-02-06T04:50:13.782Z,1022.70
2019-02-06T04:51:13.975Z,1022.76
2019-02-06T04:52:14.217Z,1022.77
2019-02-06T04:53:14.380Z,1022.75
2019-02-06T04:54:14.581Z,1022.74
2019-02-06T04:55:14.796Z,1022.76
2019-02-06T04:56:15.068Z,1022.69
2019-02-06T04:57:15.224Z,1022.76
2019-02-06T04:58:15.413Z,1022.77
2019-02-06T04:59:15.629Z,1022.77
2019-02-06T05:00:16.089Z,1022.75
2019-02-06T05:01:16.029Z,1022.71
2019-02-06T05:02:16.292Z,1022.70
2019-02-06T05:03:16.460Z,1022.67
2019-02-06T05:04:16.712Z,1022.68
2019-02-06T05:05:16.930Z,1022.69
2019-02-06T05:06:17.079Z,1022.66
2019-02-06T05:07:19.155Z,1022.70
2019-02-06T05:08:17.498Z,1022.75
2019-02-06T05:09:17.694Z,1022.62
2019-02-06T05:10:17.918Z,1022.64
2019-02-06T05:11:18.113Z,1022.64
2019-02-06T05:12:18.336Z,1022.64
2019-02-06T05:13:18.656Z,1022.64
2019-02-06T05:14:18.760Z,1022.63
2019-02-06T05:15:18.971Z,1022.63
2019-02-06T05:16:19.262Z,1022.59
2019-02-06T05:17:19.349Z,1022.63
2019-02-06T05:18:19.596Z,1022.63
2019-02-06T05:19:19.799Z,1022.63
2019-02-06T05:20:20.033Z,1022.65
2019-02-06T05:21:20.307Z,1022.68
2019-02-06T05:22:20.385Z,1022.72
2019-02-06T05:23:20.638Z,1022.65
2019-02-06T05:24:20.832Z,1022.70
2019-02-06T05:25:21.091Z,1022.69
2019-02-06T05:26:21.236Z,1022.65
2019-02-06T05:27:21.441Z,1022.62
2019-02-06T05:28:21.662Z,1022.61
2019-02-06T05:29:21.909Z,1022.60
2019-02-06T05:30:22.099Z,1022.65
2019-02-06T05:31:22.271Z,1022.69
2019-02-06T05:32:22.489Z,1022.72
2019-02-06T05:33:22.733Z,1022.64
2019-02-06T05:34:22.876Z,1022.65
2019-02-06T05:35:23.113Z,1022.68
2019-02-06T05:36:23.305Z,1022.65
2019-02-06T05:37:31.507Z,1022.65
2019-02-06T05:38:24.754Z,1022.59
2019-02-06T05:39:23.914Z,1022.62
2019-02-06T05:40:24.177Z,1022.63
2019-02-06T05:41:24.358Z,1022.68
2019-02-06T05:42:24.575Z,1022.64
2019-02-06T05:43:24.812Z,1022.66
2019-02-06T05:44:24.978Z,1022.65
2019-02-06T05:45:25.229Z,1022.68
2019-02-06T05:46:25.550Z,1022.69
2019-02-06T05:47:25.601Z,1022.71
2019-02-06T05:48:25.832Z,1022.72
2019-02-06T05:49:26.011Z,1022.74
2019-02-06T05:50:26.232Z,1022.74
2019-02-06T05:51:26.412Z,1022.73
2019-02-06T05:52:26.634Z,1022.72
2019-02-06T05:53:26.870Z,1022.71
2019-02-06T05:54:27.268Z,1022.72
2019-02-06T05:55:27.260Z,1022.70
2019-02-06T05:56:27.471Z,1022.66
2019-02-06T05:57:27.690Z,1022.70
2019-02-06T05:58:27.949Z,1022.64
2019-02-06T05:59:28.110Z,1022.68
2019-02-06T06:00:28.334Z,1022.64
2019-02-06T06:01:28.518Z,1022.62
2019-02-06T06:02:28.760Z,1022.66
2019-02-06T06:03:28.945Z,1022.66
2019-02-06T06:04:29.138Z,1022.63
2019-02-06T06:05:29.359Z,1022.67
2019-02-06T06:06:29.673Z,1022.63
2019-02-06T06:07:29.736Z,1022.63
2019-02-06T06:08:30.062Z,1022.65
2019-02-06T06:09:30.166Z,1022.67
2019-02-06T06:10:30.469Z,1022.67
2019-02-06T06:11:30.582Z,1022.65
2019-02-06T06:12:30.775Z,1022.69
2019-02-06T06:13:35.637Z,1022.70
2019-02-06T06:14:31.183Z,1022.74
2019-02-06T06:15:31.426Z,1022.72
2019-02-06T06:16:31.620Z,1022.73
2019-02-06T06:17:31.815Z,1022.69
2019-02-06T06:18:32.097Z,1022.69
2019-02-06T06:19:32.254Z,1022.71
2019-02-06T06:20:32.481Z,1022.73
2019-02-06T06:21:32.654Z,1022.63
2019-02-06T06:22:32.857Z,1022.72
2019-02-06T06:23:33.096Z,1022.71
2019-02-06T06:24:33.275Z,1022.65
2019-02-06T06:25:33.457Z,1022.63
2019-02-06T06:26:33.712Z,1022.64
2019-02-06T06:27:33.990Z,1022.59
2019-02-06T06:28:34.133Z,1022.60
2019-02-06T06:29:34.294Z,1022.60
2019-02-06T06:30:34.512Z,1022.59
2019-02-06T06:31:34.752Z,1022.61
2019-02-06T06:32:34.962Z,1022.56
2019-02-06T06:33:35.187Z,1022.58
2019-02-06T06:34:35.371Z,1022.61
2019-02-06T06:35:35.677Z,1022.70
2019-02-06T06:36:35.799Z,1022.63
2019-02-06T06:37:35.990Z,1022.58
2019-02-06T06:38:36.461Z,1022.64
2019-02-06T06:39:36.403Z,1022.62
2019-02-06T06:40:36.608Z,1022.60
2019-02-06T06:41:36.815Z,1022.60
2019-02-06T06:42:37.021Z,1022.58
2019-02-06T06:43:37.313Z,1022.59
2019-02-06T06:44:37.419Z,1022.52
2019-02-06T06:45:37.632Z,1022.55
2019-02-06T06:46:37.839Z,1022.54
2019-02-06T06:47:38.030Z,1022.55
2019-02-06T06:48:38.281Z,1022.57
2019-02-06T06:49:38.460Z,1022.62
2019-02-06T06:50:38.667Z,1022.57
2019-02-06T06:51:38.978Z,1022.61
2019-02-06T06:52:39.043Z,1022.61
2019-02-06T06:53:39.306Z,1022.58
2019-02-06T06:54:39.500Z,1022.64
2019-02-06T06:55:39.708Z,1022.65
2019-02-06T06:56:39.933Z,1022.60
2019-02-06T06:57:40.126Z,1022.56
2019-02-06T06:58:40.355Z,1022.49
2019-02-06T06:59:40.568Z,1022.54
2019-02-06T07:00:40.834Z,1022.51
2019-02-06T07:01:40.968Z,1022.50
2019-02-06T07:02:41.654Z,1022.49
2019-02-06T07:03:41.396Z,1022.52
2019-02-06T07:04:41.556Z,1022.51
2019-02-06T07:05:41.783Z,1022.50
2019-02-06T07:06:42.005Z,1022.52
2019-02-06T07:07:42.198Z,1022.52
2019-02-06T07:08:42.480Z,1022.46
2019-02-06T07:09:42.612Z,1022.47
2019-02-06T07:10:42.831Z,1022.51
2019-02-06T07:11:43.046Z,1022.46
2019-02-06T07:12:43.235Z,1022.49
2019-02-06T07:13:43.469Z,1022.50
2019-02-06T07:14:43.639Z,1022.43
2019-02-06T07:15:43.868Z,1022.42
2019-02-06T07:16:44.219Z,1022.47
2019-02-06T07:17:44.279Z,1022.41
2019-02-06T07:18:44.514Z,1022.44
2019-02-06T07:19:44.684Z,1022.46
2019-02-06T07:20:44.889Z,1022.45
2019-02-06T07:21:45.126Z,1022.41
2019-02-06T07:22:45.315Z,1022.34
2019-02-06T07:23:45.562Z,1022.36
2019-02-06T07:24:45.774Z,1022.36
2019-02-06T07:25:45.903Z,1022.33
2019-02-06T07:26:46.137Z,1022.27
2019-02-06T07:27:46.343Z,1022.24
2019-02-06T07:28:46.573Z,1022.21
2019-02-06T07:29:46.757Z,1022.20
2019-02-06T07:30:46.961Z,1022.20
2019-02-06T07:31:47.192Z,1022.16
2019-02-06T07:32:47.440Z,1022.19
2019-02-06T07:33:47.591Z,1022.14
2019-02-06T07:34:47.814Z,1022.14
2019-02-06T07:35:48.019Z,1022.13
2019-02-06T07:36:48.245Z,1022.09
2019-02-06T07:37:48.435Z,1022.12
2019-02-06T07:38:48.636Z,1022.11
2019-02-06T07:39:48.866Z,1022.13
2019-02-06T07:40:49.090Z,1022.17
2019-02-06T07:41:49.396Z,1022.17
2019-02-06T07:42:49.466Z,1022.26
2019-02-06T07:43:49.702Z,1022.22
2019-02-06T07:44:49.909Z,1022.22
2019-02-06T07:45:50.107Z,1022.25
2019-02-06T07:46:50.332Z,1022.27
2019-02-06T07:47:50.520Z,1022.25
2019-02-06T07:48:50.725Z,1022.31
2019-02-06T07:49:51.086Z,1022.28
2019-02-06T07:50:51.153Z,1022.28
2019-02-06T07:51:51.382Z,1022.24
2019-02-06T07:52:51.562Z,1022.27
2019-02-06T07:53:51.783Z,1022.30
2019-02-06T07:54:52.007Z,1022.26
2019-02-06T07:55:52.197Z,1022.29
2019-02-06T07:56:52.423Z,1022.23
2019-02-06T07:57:52.675Z,1022.30
2019-02-06T07:58:52.850Z,1022.22
2019-02-06T07:59:53.018Z,1022.32
2019-02-06T08:00:53.225Z,1022.28
2019-02-06T08:01:53.441Z,1022.36
2019-02-06T08:02:53.639Z,1022.30
2019-02-06T08:03:53.868Z,1022.30
2019-02-06T08:04:54.072Z,1022.34
2019-02-06T08:05:54.327Z,1022.34
2019-02-06T08:06:54.483Z,1022.36
2019-02-06T08:07:54.709Z,1022.40
2019-02-06T08:08:54.867Z,1022.38
2019-02-06T08:09:55.102Z,1022.40
2019-02-06T08:10:55.283Z,1022.39
2019-02-06T08:11:55.491Z,1022.31
2019-02-06T08:12:55.701Z,1022.37
2019-02-06T08:13:56.003Z,1022.29
2019-02-06T08:14:56.163Z,1022.34
2019-02-06T08:15:56.300Z,1022.28
2019-02-06T08:16:56.775Z,1022.27
2019-02-06T08:17:56.748Z,1022.24
2019-02-06T08:18:56.966Z,1022.25
2019-02-06T08:19:57.198Z,1022.27
2019-02-06T08:20:57.370Z,1022.29
2019-02-06T08:21:57.605Z,1022.27
2019-02-06T08:22:57.923Z,1022.30
2019-02-06T08:23:58.027Z,1022.24
2019-02-06T08:24:58.258Z,1022.28
2019-02-06T08:25:58.442Z,1022.32
2019-02-06T08:26:58.656Z,1022.23
2019-02-06T08:27:58.851Z,1022.29
2019-02-06T08:28:59.067Z,1022.24
2019-02-06T08:29:59.283Z,1022.32
2019-02-06T08:30:59.633Z,1022.23
2019-02-06T08:31:59.668Z,1022.21
2019-02-06T08:32:59.897Z,1022.14
2019-02-06T08:34:00.099Z,1022.11
2019-02-06T08:35:00.354Z,1022.12
2019-02-06T08:36:00.514Z,1022.05
2019-02-06T08:37:00.725Z,1022.11
2019-02-06T08:38:00.942Z,1022.05
2019-02-06T08:39:01.212Z,1022.03
2019-02-06T08:40:01.354Z,1021.96
2019-02-06T08:41:01.537Z,1022.00
2019-02-06T08:42:01.752Z,1022.01
2019-02-06T08:43:01.982Z,1021.97
2019-02-06T08:44:02.177Z,1021.98
2019-02-06T08:45:02.406Z,1021.98
2019-02-06T08:46:02.603Z,1022.04
2019-02-06T08:47:02.841Z,1022.00
2019-02-06T08:48:03.013Z,1022.01
2019-02-06T08:49:03.208Z,1021.94
2019-02-06T08:50:03.441Z,1021.95
2019-02-06T08:51:03.636Z,1021.99
2019-02-06T08:52:03.858Z,1021.96
2019-02-06T08:53:04.099Z,1021.95
2019-02-06T08:54:04.272Z,1021.93
2019-02-06T08:55:04.537Z,1021.89
2019-02-06T08:56:04.756Z,1021.87
2019-02-06T08:57:04.888Z,1021.84
2019-02-06T08:58:05.174Z,1021.84
2019-02-06T08:59:05.303Z,1021.79
2019-02-06T09:00:05.529Z,1021.77
2019-02-06T09:01:05.699Z,1021.75
2019-02-06T09:02:05.926Z,1021.74
2019-02-06T09:03:06.192Z,1021.70
2019-02-06T09:04:06.544Z,1021.71
2019-02-06T09:05:07.539Z,1021.67
2019-02-06T09:06:06.752Z,1021.74
2019-02-06T09:07:06.960Z,1021.70
2019-02-06T09:08:07.224Z,1021.68
2019-02-06T09:09:07.409Z,1021.66
2019-02-06T09:10:07.642Z,1021.71
2019-02-06T09:11:07.825Z,1021.72
2019-02-06T09:12:08.323Z,1021.73
2019-02-06T09:13:08.248Z,1021.75
2019-02-06T09:14:08.424Z,1021.74
2019-02-06T09:15:08.654Z,1021.72
2019-02-06T09:16:08.836Z,1021.75
2019-02-06T09:17:09.025Z,1021.69
2019-02-06T09:18:09.251Z,1021.72
2019-02-06T09:19:09.456Z,1021.67
2019-02-06T09:20:09.723Z,1021.73
2019-02-06T09:21:09.849Z,1021.75
2019-02-06T09:22:10.075Z,1021.80
2019-02-06T09:23:10.269Z,1021.81
2019-02-06T09:24:10.461Z,1021.82
2019-02-06T09:25:10.718Z,1021.80
2019-02-06T09:26:10.878Z,1021.78
2019-02-06T09:27:11.098Z,1021.79
2019-02-06T09:28:11.356Z,1021.81
2019-02-06T09:29:11.513Z,1021.74
2019-02-06T09:30:11.854Z,1021.69
2019-02-06T09:31:11.928Z,1021.70
2019-02-06T09:32:12.132Z,1021.73
2019-02-06T09:33:12.358Z,1021.73
2019-02-06T09:34:12.554Z,1021.73
2019-02-06T09:35:12.791Z,1021.72
2019-02-06T09:36:12.978Z,1021.77
2019-02-06T09:37:13.295Z,1021.78
2019-02-06T09:38:13.407Z,1021.83
2019-02-06T09:39:13.598Z,1021.79
2019-02-06T09:40:13.828Z,1021.83
2019-02-06T09:41:14.009Z,1021.75
2019-02-06T09:42:14.214Z,1021.77
2019-02-06T09:43:14.439Z,1021.77
2019-02-06T09:44:14.627Z,1021.71
2019-02-06T09:45:14.956Z,1021.71
2019-02-06T09:46:15.034Z,1021.71
2019-02-06T09:47:15.248Z,1021.66
2019-02-06T09:48:15.474Z,1021.73
2019-02-06T09:49:15.665Z,1021.71
2019-02-06T09:50:15.887Z,1021.63
2019-02-06T09:51:16.059Z,1021.58
2019-02-06T09:52:16.286Z,1021.45
2019-02-06T09:53:16.816Z,1021.48
2019-02-06T09:54:16.696Z,1021.48
2019-02-06T09:55:16.893Z,1021.55
2019-02-06T09:56:17.116Z,1021.59
2019-02-06T09:57:17.305Z,1021.58
2019-02-06T09:58:17.542Z,1021.57
2019-02-06T09:59:17.737Z,1021.52
2019-02-06T10:00:17.939Z,1021.57
2019-02-06T10:01:21.268Z,1021.61
2019-02-06T10:02:18.333Z,1021.56
2019-02-06T10:03:18.582Z,1021.60
2019-02-06T10:04:18.783Z,1021.57
2019-02-06T10:05:18.987Z,1021.55
2019-02-06T10:06:19.237Z,1021.52
2019-02-06T10:07:19.412Z,1021.52
2019-02-06T10:08:19.630Z,1021.51
2019-02-06T10:09:22.901Z,1021.51
2019-02-06T10:10:20.079Z,1021.46
2019-02-06T10:11:20.258Z,1021.46
2019-02-06T10:12:20.443Z,1021.49
2019-02-06T10:13:20.670Z,1021.43
2019-02-06T10:14:20.853Z,1021.45
2019-02-06T10:15:21.062Z,1021.42
2019-02-06T10:16:21.302Z,1021.45
2019-02-06T10:17:21.484Z,1021.45
2019-02-06T10:18:21.799Z,1021.43
2019-02-06T10:19:21.896Z,1021.38
2019-02-06T10:20:22.182Z,1021.37
2019-02-06T10:21:22.356Z,1021.36
2019-02-06T10:22:22.539Z,1021.44
2019-02-06T10:23:22.919Z,1021.34
2019-02-06T10:24:22.940Z,1021.32
2019-02-06T10:25:23.143Z,1021.31
2019-02-06T10:26:23.495Z,1021.25
2019-02-06T10:27:24.123Z,1021.30
2019-02-06T10:28:24.309Z,1021.25
2019-02-06T10:29:23.947Z,1021.20
2019-02-06T10:30:24.177Z,1021.15
2019-02-06T10:31:24.426Z,1021.12
2019-02-06T10:32:24.608Z,1021.05
2019-02-06T10:33:24.831Z,1021.02
2019-02-06T10:34:25.064Z,1020.94
2019-02-06T10:35:25.195Z,1020.98
2019-02-06T10:36:25.455Z,1021.02
2019-02-06T10:37:25.641Z,1021.00
2019-02-06T10:38:25.864Z,1020.90
2019-02-06T10:39:34.331Z,1020.91
2019-02-06T10:40:27.259Z,1020.89
2019-02-06T10:41:26.487Z,1020.76
2019-02-06T10:42:26.690Z,1020.81
2019-02-06T10:43:32.048Z,1020.77
2019-02-06T10:44:28.084Z,1020.83
2019-02-06T10:45:27.285Z,1020.81
2019-02-06T10:46:27.530Z,1020.83
2019-02-06T10:47:27.682Z,1020.80
2019-02-06T10:48:27.910Z,1020.79
2019-02-06T10:49:28.111Z,1020.82
2019-02-06T10:50:28.338Z,1020.80
2019-02-06T10:51:28.635Z,1020.81
2019-02-06T10:52:28.716Z,1020.69
2019-02-06T10:53:28.941Z,1020.72
2019-02-06T10:54:29.152Z,1020.72
2019-02-06T10:55:29.372Z,1020.58
2019-02-06T10:56:29.598Z,1020.67
2019-02-06T10:57:29.778Z,1020.57
2019-02-06T10:58:29.971Z,1020.59
2019-02-06T10:59:30.298Z,1020.60
2019-02-06T11:00:30.434Z,1020.68
2019-02-06T11:01:30.669Z,1020.64
2019-02-06T11:02:30.844Z,1020.58
2019-02-06T11:03:31.043Z,1020.53
2019-02-06T11:04:31.281Z,1020.53
2019-02-06T11:05:31.493Z,1020.52
2019-02-06T11:06:31.725Z,1020.44
2019-02-06T11:07:31.970Z,1020.53
2019-02-06T11:08:32.090Z,1020.48
2019-02-06T11:09:32.325Z,1020.43
2019-02-06T11:10:32.538Z,1020.44
2019-02-06T11:11:32.743Z,1020.43
2019-02-06T11:12:32.927Z,1020.43
2019-02-06T11:13:33.134Z,1020.45
2019-02-06T11:14:33.351Z,1020.39
2019-02-06T11:15:33.605Z,1020.37
2019-02-06T11:16:33.752Z,1020.38
2019-02-06T11:17:33.959Z,1020.30
2019-02-06T11:18:34.157Z,1020.36
2019-02-06T11:19:34.377Z,1020.33
2019-02-06T11:20:34.553Z,1020.37
2019-02-06T11:21:34.771Z,1020.22
2019-02-06T11:22:34.989Z,1020.27
2019-02-06T11:23:35.228Z,1020.26
2019-02-06T11:24:35.443Z,1020.29
2019-02-06T11:25:35.589Z,1020.32
2019-02-06T11:26:35.812Z,1020.29
2019-02-06T11:27:36.020Z,1020.37
2019-02-06T11:28:36.210Z,1020.34
2019-02-06T11:29:36.440Z,1020.33
2019-02-06T11:30:36.636Z,1020.38
2019-02-06T11:31:36.867Z,1020.38
2019-02-06T11:32:37.143Z,1020.33
2019-02-06T11:33:37.476Z,1020.27
2019-02-06T11:34:37.475Z,1020.24
2019-02-06T11:35:37.659Z,1020.24
2019-02-06T11:36:37.884Z,1020.25
2019-02-06T11:37:38.084Z,1020.17
2019-02-06T11:38:38.274Z,1020.15
2019-02-06T11:39:38.515Z,1020.07
2019-02-06T11:40:38.814Z,1020.15
2019-02-06T11:41:38.909Z,1020.17
2019-02-06T11:42:39.110Z,1020.07
2019-02-06T11:43:39.337Z,1020.03
2019-02-06T11:44:39.567Z,1019.97
2019-02-06T11:45:39.762Z,1020.04
2019-02-06T11:46:39.975Z,1019.99
2019-02-06T11:47:40.161Z,1020.01
2019-02-06T11:48:43.220Z,1019.98
2019-02-06T11:49:40.581Z,1019.99
2019-02-06T11:50:40.795Z,1020.02
2019-02-06T11:51:41.004Z,1019.96
2019-02-06T11:52:41.203Z,1019.90
2019-02-06T11:53:41.389Z,1019.94
2019-02-06T11:54:41.625Z,1019.94
2019-02-06T11:55:41.833Z,1019.93
2019-02-06T11:56:42.097Z,1019.88
2019-02-06T11:57:42.237Z,1019.83
2019-02-06T11:58:42.436Z,1019.86
2019-02-06T11:59:42.650Z,1019.81
2019-02-06T12:00:42.846Z,1019.81
2019-02-06T12:01:43.058Z,1019.69
2019-02-06T12:02:43.282Z,1019.67
2019-02-06T12:03:43.472Z,1019.72
2019-02-06T12:04:43.822Z,1019.64
2019-02-06T12:05:43.925Z,1019.67
2019-02-06T12:06:44.083Z,1019.64
2019-02-06T12:07:44.323Z,1019.56